St. Elmo — WDG2405 — position and weather

sailwx.info

Track history (hours):
 
Tides and Currents Weather Stations Pressure Air Temp Water Temp Dewpoint Dewpoint Depression Visibility Wind Speed Wind Dir Waves Ship Positions

St. Elmo

Owner: Marquette Transportation Company Gulf-Inland, LLC, Jefferson, LA. More information available from US FCC via Universal Licensing System and Coast Guard Vessel Documentation Center.

Last reported at 2016-Nov-27 03:20 UTC. Time now 2016-Dec-05 04:34 UTC.
Position N 29°34' W 094°55'.
Warning: this ship's position is 8 days out of date.

; draft 3 m.

MMSI: 367515330.

Date/timePositionNaut miles runAvg speedWind from/ knotsBaromVisibWave heightAir tempDewpointWater temp
2016-Nov-27 03:20N 29°34' W 094°55'4 5.2
2016-Nov-27 02:33N 29°37' W 094°58'5 4.9
2016-Nov-27 01:31N 29°42' W 095°00'4 4.5
2016-Nov-27 00:32N 29°45' W 095°04'1 0.1
2016-Nov-26 17:33N 29°45' W 095°04'5 5.5
2016-Nov-26 16:33N 29°41' W 094°59'6 6.2
2016-Nov-26 15:33N 29°35' W 094°56'  
2016-Nov-23 03:07N 29°34' W 094°55'4 7.1
2016-Nov-23 02:33N 29°37' W 094°58'10 0.8
2016-Nov-22 13:29N 29°45' W 095°04'  
2016-Nov-20 09:28N 29°35' W 094°56'5 5.7
2016-Nov-20 08:33N 29°40' W 094°58'6 5.2
2016-Nov-20 07:28N 29°44' W 095°03'1 0.0
2016-Nov-18 04:33N 29°44' W 095°04'  
Track history (hours):
 
Tides and Currents Weather Stations Pressure Air Temp Water Temp Dewpoint Dewpoint Depression Visibility Wind Speed Wind Dir Waves Ship Positions

St. Elmo

Owner: Marquette Transportation Company Gulf-Inland, LLC, Jefferson, LA. More information available from US FCC via Universal Licensing System and Coast Guard Vessel Documentation Center.

Last reported at 2016-Nov-27 03:20 UTC. Time now 2016-Dec-05 04:34 UTC.
Position N 29°34' W 094°55'.
Warning: this ship's position is 8 days out of date.

; draft 3 m.

MMSI: 367515330.

Date/timePositionNaut miles runAvg speedWind from/ knotsBaromVisibWave heightAir tempDewpointWater temp
2016-Nov-27 03:20N 29°34' W 094°55'4 5.2
2016-Nov-27 02:33N 29°37' W 094°58'5 4.9
2016-Nov-27 01:31N 29°42' W 095°00'4 4.5
2016-Nov-27 00:32N 29°45' W 095°04'1 0.1
2016-Nov-26 17:33N 29°45' W 095°04'5 5.5
2016-Nov-26 16:33N 29°41' W 094°59'6 6.2
2016-Nov-26 15:33N 29°35' W 094°56'  
2016-Nov-23 03:07N 29°34' W 094°55'4 7.1
2016-Nov-23 02:33N 29°37' W 094°58'10 0.8
2016-Nov-22 13:29N 29°45' W 095°04'  
2016-Nov-20 09:28N 29°35' W 094°56'5 5.7
2016-Nov-20 08:33N 29°40' W 094°58'6 5.2
2016-Nov-20 07:28N 29°44' W 095°03'1 0.0
2016-Nov-18 04:33N 29°44' W 095°04'  

Dump ship's entire track history